createdAt,value
2018-08-28T00:00:52.940Z,1011.46
2018-08-28T00:01:52.923Z,1011.52
2018-08-28T00:02:52.904Z,1011.51
2018-08-28T00:03:52.892Z,1011.50
2018-08-28T00:04:52.877Z,1011.49
2018-08-28T00:05:52.858Z,1011.48
2018-08-28T00:06:52.842Z,1011.50
2018-08-28T00:07:52.821Z,1011.51
2018-08-28T00:08:52.802Z,1011.48
2018-08-28T00:09:52.793Z,1011.46
2018-08-28T00:10:52.770Z,1011.47
2018-08-28T00:11:52.757Z,1011.47
2018-08-28T00:12:52.739Z,1011.51
2018-08-28T00:13:52.720Z,1011.50
2018-08-28T00:14:52.703Z,1011.51
2018-08-28T00:15:52.685Z,1011.49
2018-08-28T00:16:52.700Z,1011.48
2018-08-28T00:17:52.652Z,1011.50
2018-08-28T00:18:52.633Z,1011.51
2018-08-28T00:19:52.617Z,1011.51
2018-08-28T00:20:52.601Z,1011.47
2018-08-28T00:21:52.593Z,1011.50
2018-08-28T00:22:52.573Z,1011.56
2018-08-28T00:23:52.552Z,1011.60
2018-08-28T00:24:52.536Z,1011.61
2018-08-28T00:25:52.517Z,1011.58
2018-08-28T00:26:52.498Z,1011.62
2018-08-28T00:27:52.481Z,1011.68
2018-08-28T00:28:52.470Z,1011.73
2018-08-28T00:29:52.448Z,1011.72
2018-08-28T00:30:52.433Z,1011.74
2018-08-28T00:31:52.423Z,1011.74
2018-08-28T00:32:52.398Z,1011.78
2018-08-28T00:33:52.378Z,1011.78
2018-08-28T00:34:52.366Z,1011.75
2018-08-28T00:35:52.345Z,1011.82
2018-08-28T00:36:52.328Z,1011.80
2018-08-28T00:37:52.312Z,1011.80
2018-08-28T00:38:52.294Z,1011.87
2018-08-28T00:39:52.278Z,1011.90
2018-08-28T00:40:52.259Z,1011.91
2018-08-28T00:41:52.241Z,1011.92
2018-08-28T00:42:52.230Z,1011.93
2018-08-28T00:43:52.209Z,1011.89
2018-08-28T00:44:52.191Z,1011.87
2018-08-28T00:45:52.185Z,1011.95
2018-08-28T00:46:52.167Z,1011.94
2018-08-28T00:47:52.142Z,1011.96
2018-08-28T00:48:52.123Z,1011.94
2018-08-28T00:49:52.109Z,1011.95
2018-08-28T00:50:52.091Z,1011.96
2018-08-28T00:51:52.068Z,1011.98
2018-08-28T00:52:52.059Z,1011.97
2018-08-28T00:53:52.035Z,1012.04
2018-08-28T00:54:52.022Z,1012.01
2018-08-28T00:55:52.017Z,1012.05
2018-08-28T00:56:51.988Z,1012.09
2018-08-28T00:57:51.967Z,1012.11
2018-08-28T00:58:51.953Z,1012.16
2018-08-28T00:59:51.935Z,1012.13
2018-08-28T01:00:51.918Z,1012.17
2018-08-28T01:01:51.900Z,1012.18
2018-08-28T01:02:51.883Z,1012.20
2018-08-28T01:03:51.865Z,1012.20
2018-08-28T01:04:51.859Z,1012.20
2018-08-28T01:05:51.830Z,1012.23
2018-08-28T01:06:51.818Z,1012.24
2018-08-28T01:07:51.798Z,1012.29
2018-08-28T01:08:51.779Z,1012.26
2018-08-28T01:09:51.763Z,1012.27
2018-08-28T01:10:51.751Z,1012.25
2018-08-28T01:11:51.729Z,1012.29
2018-08-28T01:12:51.734Z,1012.33
2018-08-28T01:13:51.693Z,1012.29
2018-08-28T01:14:51.675Z,1012.28
2018-08-28T01:15:51.661Z,1012.29
2018-08-28T01:16:51.640Z,1012.31
2018-08-28T01:17:51.631Z,1012.35
2018-08-28T01:18:51.612Z,1012.31
2018-08-28T01:19:51.591Z,1012.32
2018-08-28T01:20:51.579Z,1012.35
2018-08-28T01:21:51.562Z,1012.32
2018-08-28T01:22:51.543Z,1012.32
2018-08-28T01:23:51.520Z,1012.34
2018-08-28T01:24:51.509Z,1012.40
2018-08-28T01:25:51.487Z,1012.41
2018-08-28T01:26:51.474Z,1012.36
2018-08-28T01:27:51.453Z,1012.39
2018-08-28T01:28:51.442Z,1012.41
2018-08-28T01:29:51.418Z,1012.43
2018-08-28T01:30:51.409Z,1012.42
2018-08-28T01:31:51.385Z,1012.41
2018-08-28T01:32:51.372Z,1012.47
2018-08-28T01:33:51.353Z,1012.47
2018-08-28T01:34:51.332Z,1012.44
2018-08-28T01:35:51.316Z,1012.45
2018-08-28T01:36:51.302Z,1012.48
2018-08-28T01:37:51.282Z,1012.47
2018-08-28T01:38:51.264Z,1012.50
2018-08-28T01:39:51.249Z,1012.48
2018-08-28T01:40:51.236Z,1012.49
2018-08-28T01:41:51.211Z,1012.51
2018-08-28T01:42:51.197Z,1012.50
2018-08-28T01:43:51.178Z,1012.53
2018-08-28T01:44:51.165Z,1012.53
2018-08-28T01:45:51.155Z,1012.52
2018-08-28T01:46:51.129Z,1012.50
2018-08-28T01:47:51.113Z,1012.50
2018-08-28T01:48:51.091Z,1012.52
2018-08-28T01:49:51.075Z,1012.54
2018-08-28T01:50:51.061Z,1012.51
2018-08-28T01:51:51.042Z,1012.51
2018-08-28T01:52:51.027Z,1012.51
2018-08-28T01:53:51.007Z,1012.54
2018-08-28T01:54:50.992Z,1012.58
2018-08-28T01:55:50.972Z,1012.56
2018-08-28T01:56:50.958Z,1012.56
2018-08-28T01:57:50.938Z,1012.56
2018-08-28T01:58:50.923Z,1012.62
2018-08-28T01:59:50.907Z,1012.60
2018-08-28T02:00:50.888Z,1012.62
2018-08-28T02:01:50.872Z,1012.61
2018-08-28T02:02:50.854Z,1012.62
2018-08-28T02:03:50.840Z,1012.63
2018-08-28T02:04:50.820Z,1012.64
2018-08-28T02:05:50.801Z,1012.66
2018-08-28T02:06:50.782Z,1012.62
2018-08-28T02:07:50.766Z,1012.65
2018-08-28T02:08:50.748Z,1012.62
2018-08-28T02:09:50.730Z,1012.66
2018-08-28T02:10:50.716Z,1012.64
2018-08-28T02:11:50.702Z,1012.66
2018-08-28T02:12:50.681Z,1012.67
2018-08-28T02:13:50.663Z,1012.66
2018-08-28T02:14:50.642Z,1012.66
2018-08-28T02:15:50.629Z,1012.66
2018-08-28T02:16:50.609Z,1012.72
2018-08-28T02:17:50.593Z,1012.70
2018-08-28T02:18:50.575Z,1012.69
2018-08-28T02:19:50.561Z,1012.68
2018-08-28T02:20:50.544Z,1012.71
2018-08-28T02:21:50.525Z,1012.72
2018-08-28T02:22:50.507Z,1012.72
2018-08-28T02:23:50.489Z,1012.73
2018-08-28T02:24:50.472Z,1012.71
2018-08-28T02:25:50.454Z,1012.69
2018-08-28T02:26:50.442Z,1012.71
2018-08-28T02:27:50.423Z,1012.71
2018-08-28T02:28:50.404Z,1012.73
2018-08-28T02:29:50.386Z,1012.69
2018-08-28T02:30:50.368Z,1012.77
2018-08-28T02:31:50.350Z,1012.73
2018-08-28T02:32:50.334Z,1012.73
2018-08-28T02:33:50.317Z,1012.77
2018-08-28T02:34:50.298Z,1012.73
2018-08-28T02:35:50.285Z,1012.76
2018-08-28T02:36:50.263Z,1012.76
2018-08-28T02:37:50.246Z,1012.73
2018-08-28T02:38:50.233Z,1012.72
2018-08-28T02:39:50.215Z,1012.76
2018-08-28T02:40:50.197Z,1012.74
2018-08-28T02:41:50.180Z,1012.71
2018-08-28T02:42:50.165Z,1012.74
2018-08-28T02:43:50.147Z,1012.71
2018-08-28T02:44:50.125Z,1012.72
2018-08-28T02:45:50.113Z,1012.70
2018-08-28T02:46:50.095Z,1012.72
2018-08-28T02:47:50.080Z,1012.68
2018-08-28T02:48:50.063Z,1012.70
2018-08-28T02:49:50.041Z,1012.70
2018-08-28T02:50:50.025Z,1012.70
2018-08-28T02:51:50.009Z,1012.69
2018-08-28T02:52:49.993Z,1012.68
2018-08-28T02:53:49.969Z,1012.69
2018-08-28T02:54:49.951Z,1012.72
2018-08-28T02:55:49.934Z,1012.71
2018-08-28T02:56:49.916Z,1012.71
2018-08-28T02:57:49.903Z,1012.70
2018-08-28T02:58:49.886Z,1012.75
2018-08-28T02:59:49.868Z,1012.75
2018-08-28T03:00:49.850Z,1012.75
2018-08-28T03:01:49.830Z,1012.80
2018-08-28T03:02:49.880Z,1012.78
2018-08-28T03:03:49.798Z,1012.73
2018-08-28T03:04:49.779Z,1012.78
2018-08-28T03:05:49.763Z,1012.79
2018-08-28T03:06:49.746Z,1012.81
2018-08-28T03:07:49.724Z,1012.78
2018-08-28T03:08:49.710Z,1012.82
2018-08-28T03:09:49.690Z,1012.83
2018-08-28T03:10:49.677Z,1012.85
2018-08-28T03:11:49.663Z,1012.83
2018-08-28T03:12:49.642Z,1012.81
2018-08-28T03:13:49.619Z,1012.86
2018-08-28T03:14:49.608Z,1012.89
2018-08-28T03:15:49.618Z,1012.89
2018-08-28T03:16:49.575Z,1012.89
2018-08-28T03:17:49.549Z,1012.87
2018-08-28T03:18:49.539Z,1012.94
2018-08-28T03:19:49.515Z,1012.91
2018-08-28T03:20:49.501Z,1012.90
2018-08-28T03:21:49.483Z,1012.95
2018-08-28T03:22:49.463Z,1012.94
2018-08-28T03:23:49.447Z,1012.90
2018-08-28T03:24:49.430Z,1012.91
2018-08-28T03:25:49.412Z,1012.96
2018-08-28T03:26:49.395Z,1012.95
2018-08-28T03:27:49.374Z,1013.02
2018-08-28T03:28:49.360Z,1013.01
2018-08-28T03:29:49.337Z,1012.98
2018-08-28T03:30:49.322Z,1013.04
2018-08-28T03:31:49.310Z,1013.01
2018-08-28T03:32:49.287Z,1013.06
2018-08-28T03:33:49.269Z,1013.09
2018-08-28T03:34:49.252Z,1013.10
2018-08-28T03:35:49.237Z,1013.09
2018-08-28T03:36:49.215Z,1013.14
2018-08-28T03:37:49.198Z,1013.16
2018-08-28T03:38:49.177Z,1013.18
2018-08-28T03:39:49.164Z,1013.19
2018-08-28T03:40:49.152Z,1013.21
2018-08-28T03:41:49.127Z,1013.26
2018-08-28T03:42:49.113Z,1013.29
2018-08-28T03:43:49.091Z,1013.25
2018-08-28T03:44:49.126Z,1013.31
2018-08-28T03:45:49.060Z,1013.26
2018-08-28T03:46:49.041Z,1013.27
2018-08-28T03:47:49.024Z,1013.28
2018-08-28T03:48:49.003Z,1013.23
2018-08-28T03:49:48.981Z,1013.28
2018-08-28T03:50:48.967Z,1013.31
2018-08-28T03:51:48.949Z,1013.34
2018-08-28T03:52:48.936Z,1013.37
2018-08-28T03:53:48.937Z,1013.38
2018-08-28T03:54:48.895Z,1013.41
2018-08-28T03:55:48.882Z,1013.38
2018-08-28T03:56:48.861Z,1013.39
2018-08-28T03:57:48.844Z,1013.43
2018-08-28T03:58:48.829Z,1013.46
2018-08-28T03:59:48.828Z,1013.47
2018-08-28T04:00:48.794Z,1013.51
2018-08-28T04:01:48.776Z,1013.50
2018-08-28T04:02:48.758Z,1013.55
2018-08-28T04:03:48.833Z,1013.51
2018-08-28T04:04:48.723Z,1013.50
2018-08-28T04:05:48.704Z,1013.48
2018-08-28T04:06:48.690Z,1013.48
2018-08-28T04:07:48.667Z,1013.51
2018-08-28T04:08:48.653Z,1013.52
2018-08-28T04:09:48.634Z,1013.51
2018-08-28T04:10:48.615Z,1013.55
2018-08-28T04:11:48.597Z,1013.55
2018-08-28T04:12:48.578Z,1013.57
2018-08-28T04:13:48.562Z,1013.57
2018-08-28T04:14:48.546Z,1013.59
2018-08-28T04:15:48.527Z,1013.58
2018-08-28T04:16:48.505Z,1013.55
2018-08-28T04:17:48.491Z,1013.61
2018-08-28T04:18:48.473Z,1013.60
2018-08-28T04:19:48.457Z,1013.61
2018-08-28T04:20:48.443Z,1013.63
2018-08-28T04:21:48.422Z,1013.62
2018-08-28T04:22:48.401Z,1013.63
2018-08-28T04:23:48.382Z,1013.67
2018-08-28T04:24:48.368Z,1013.71
2018-08-28T04:25:48.344Z,1013.64
2018-08-28T04:26:48.328Z,1013.66
2018-08-28T04:27:48.315Z,1013.69
2018-08-28T04:28:48.293Z,1013.70
2018-08-28T04:29:48.283Z,1013.69
2018-08-28T04:30:48.270Z,1013.68
2018-08-28T04:31:48.239Z,1013.71
2018-08-28T04:32:48.222Z,1013.70
2018-08-28T04:33:48.209Z,1013.72
2018-08-28T04:34:48.186Z,1013.74
2018-08-28T04:35:48.170Z,1013.75
2018-08-28T04:36:48.149Z,1013.73
2018-08-28T04:37:48.136Z,1013.79
2018-08-28T04:38:48.117Z,1013.82
2018-08-28T04:39:48.102Z,1013.77
2018-08-28T04:40:48.081Z,1013.72
2018-08-28T04:41:48.139Z,1013.79
2018-08-28T04:42:48.048Z,1013.75
2018-08-28T04:43:48.027Z,1013.76
2018-08-28T04:44:48.016Z,1013.78
2018-08-28T04:45:47.993Z,1013.77
2018-08-28T04:46:47.972Z,1013.79
2018-08-28T04:47:47.959Z,1013.81
2018-08-28T04:48:47.942Z,1013.85
2018-08-28T04:49:47.921Z,1013.83
2018-08-28T04:50:47.905Z,1013.85
2018-08-28T04:51:47.889Z,1013.86
2018-08-28T04:52:47.916Z,1013.83
2018-08-28T04:53:47.848Z,1013.85
2018-08-28T04:54:47.854Z,1013.86
2018-08-28T04:55:47.813Z,1013.81
2018-08-28T04:56:47.801Z,1013.84
2018-08-28T04:57:47.779Z,1013.80
2018-08-28T04:58:47.761Z,1013.84
2018-08-28T04:59:47.747Z,1013.90
2018-08-28T05:00:47.764Z,1013.88
2018-08-28T05:01:47.712Z,1013.90
2018-08-28T05:02:47.692Z,1013.93
2018-08-28T05:03:47.675Z,1013.95
2018-08-28T05:04:47.654Z,1013.94
2018-08-28T05:05:47.643Z,1014.00
2018-08-28T05:06:47.622Z,1014.04
2018-08-28T05:07:47.605Z,1014.00
2018-08-28T05:08:47.589Z,1014.04
2018-08-28T05:09:47.565Z,1014.04
2018-08-28T05:10:47.549Z,1014.05
2018-08-28T05:11:47.571Z,1014.07
2018-08-28T05:12:47.513Z,1014.05
2018-08-28T05:13:47.500Z,1014.07
2018-08-28T05:14:47.478Z,1014.10
2018-08-28T05:15:47.484Z,1014.10
2018-08-28T05:16:47.442Z,1014.12
2018-08-28T05:17:47.424Z,1014.10
2018-08-28T05:18:47.406Z,1014.10
2018-08-28T05:19:47.390Z,1014.12
2018-08-28T05:20:47.372Z,1014.12
2018-08-28T05:21:47.365Z,1014.11
2018-08-28T05:22:47.338Z,1014.09
2018-08-28T05:23:47.317Z,1014.13
2018-08-28T05:24:47.325Z,1014.14
2018-08-28T05:25:47.284Z,1014.16
2018-08-28T05:26:47.267Z,1014.16
2018-08-28T05:27:47.248Z,1014.21
2018-08-28T05:28:47.242Z,1014.19
2018-08-28T05:29:47.216Z,1014.23
2018-08-28T05:30:47.199Z,1014.24
2018-08-28T05:31:47.182Z,1014.26
2018-08-28T05:32:47.165Z,1014.26
2018-08-28T05:33:47.148Z,1014.31
2018-08-28T05:34:47.131Z,1014.27
2018-08-28T05:35:47.112Z,1014.28
2018-08-28T05:36:47.094Z,1014.30
2018-08-28T05:37:47.082Z,1014.32
2018-08-28T05:38:47.053Z,1014.34
2018-08-28T05:39:47.036Z,1014.36
2018-08-28T05:40:47.024Z,1014.33
2018-08-28T05:41:47.001Z,1014.33
2018-08-28T05:42:46.986Z,1014.29
2018-08-28T05:43:46.971Z,1014.33
2018-08-28T05:44:46.951Z,1014.32
2018-08-28T05:45:46.930Z,1014.34
2018-08-28T05:46:46.914Z,1014.34
2018-08-28T05:47:46.901Z,1014.40
2018-08-28T05:48:46.879Z,1014.39
2018-08-28T05:49:46.860Z,1014.41
2018-08-28T05:50:46.844Z,1014.40
2018-08-28T05:51:46.826Z,1014.44
2018-08-28T05:52:46.809Z,1014.46
2018-08-28T05:53:46.794Z,1014.44
2018-08-28T05:54:46.775Z,1014.44
2018-08-28T05:55:46.766Z,1014.46
2018-08-28T05:56:46.741Z,1014.48
2018-08-28T05:57:46.724Z,1014.48
2018-08-28T05:58:46.708Z,1014.54
2018-08-28T05:59:46.691Z,1014.54
2018-08-28T06:00:46.673Z,1014.55
2018-08-28T06:01:46.654Z,1014.55
2018-08-28T06:02:46.638Z,1014.58
2018-08-28T06:03:46.620Z,1014.60
2018-08-28T06:04:46.603Z,1014.59
2018-08-28T06:05:46.587Z,1014.58
2018-08-28T06:06:46.565Z,1014.60
2018-08-28T06:07:46.552Z,1014.63
2018-08-28T06:08:46.585Z,1014.64
2018-08-28T06:09:46.513Z,1014.67
2018-08-28T06:10:46.503Z,1014.64
2018-08-28T06:11:46.490Z,1014.66
2018-08-28T06:12:46.467Z,1014.68
2018-08-28T06:13:46.451Z,1014.66
2018-08-28T06:14:46.540Z,1014.69
2018-08-28T06:15:46.613Z,1014.73
2018-08-28T06:16:46.395Z,1014.68
2018-08-28T06:17:46.377Z,1014.70
2018-08-28T06:18:46.360Z,1014.75
2018-08-28T06:19:46.343Z,1014.71
2018-08-28T06:20:46.324Z,1014.72
2018-08-28T06:21:46.309Z,1014.75
2018-08-28T06:22:46.293Z,1014.71
2018-08-28T06:23:46.275Z,1014.72
2018-08-28T06:24:46.258Z,1014.76
2018-08-28T06:25:46.242Z,1014.78
2018-08-28T06:26:46.221Z,1014.80
2018-08-28T06:27:46.206Z,1014.85
2018-08-28T06:28:46.192Z,1014.84
2018-08-28T06:29:46.176Z,1014.86
2018-08-28T06:30:46.152Z,1014.86
2018-08-28T06:31:46.140Z,1014.87
2018-08-28T06:32:46.122Z,1014.89
2018-08-28T06:33:46.139Z,1014.89
2018-08-28T06:34:46.088Z,1014.86
2018-08-28T06:35:46.068Z,1014.88
2018-08-28T06:36:46.055Z,1014.91
2018-08-28T06:37:46.046Z,1014.88
2018-08-28T06:38:46.028Z,1014.91
2018-08-28T06:39:46.005Z,1014.89
2018-08-28T06:40:45.982Z,1014.93
2018-08-28T06:41:45.965Z,1014.92
2018-08-28T06:42:45.953Z,1014.93
2018-08-28T06:43:45.989Z,1014.95
2018-08-28T06:44:45.921Z,1014.97
2018-08-28T06:45:45.898Z,1014.99
2018-08-28T06:46:45.885Z,1014.97
2018-08-28T06:47:45.872Z,1014.99
2018-08-28T06:48:45.851Z,1014.99
2018-08-28T06:49:45.831Z,1015.04
2018-08-28T06:50:45.821Z,1015.02
2018-08-28T06:51:45.805Z,1015.02
2018-08-28T06:52:45.783Z,1015.05
2018-08-28T06:53:45.767Z,1015.05
2018-08-28T06:54:45.750Z,1015.01
2018-08-28T06:55:45.736Z,1015.11
2018-08-28T06:56:45.764Z,1015.07
2018-08-28T06:57:45.699Z,1015.08
2018-08-28T06:58:45.682Z,1015.10
2018-08-28T06:59:45.678Z,1015.14
2018-08-28T07:00:45.650Z,1015.09
2018-08-28T07:01:45.637Z,1015.16
2018-08-28T07:02:45.617Z,1015.28
2018-08-28T07:03:45.615Z,1015.30
2018-08-28T07:04:45.588Z,1015.29
2018-08-28T07:05:45.567Z,1015.30
2018-08-28T07:06:45.554Z,1015.29
2018-08-28T07:07:45.535Z,1015.26
2018-08-28T07:08:45.521Z,1015.25
2018-08-28T07:09:45.502Z,1015.26
2018-08-28T07:10:45.491Z,1015.70
2018-08-28T07:11:45.471Z,1016.49
2018-08-28T07:12:45.459Z,1016.67
2018-08-28T07:13:45.439Z,1016.81
2018-08-28T07:14:45.427Z,1017.15
2018-08-28T07:15:45.414Z,1017.15
2018-08-28T07:16:45.397Z,1017.89
2018-08-28T07:17:45.378Z,1018.55
2018-08-28T07:18:45.393Z,1016.36
2018-08-28T07:19:45.349Z,1015.50
2018-08-28T07:20:45.336Z,1019.96
2018-08-28T07:21:45.318Z,1020.62
2018-08-28T07:22:45.304Z,1021.14
2018-08-28T07:23:45.290Z,1021.21
2018-08-28T07:24:45.276Z,1021.21
2018-08-28T07:25:45.385Z,1021.18
2018-08-28T07:26:45.247Z,1021.34
2018-08-28T07:27:45.231Z,1021.82
2018-08-28T07:28:45.216Z,1022.43
2018-08-28T07:29:45.207Z,1023.00
2018-08-28T07:30:45.194Z,1023.49
2018-08-28T07:31:45.255Z,1023.65
2018-08-28T07:32:45.166Z,1022.44
2018-08-28T07:33:45.157Z,1019.75
2018-08-28T07:34:45.143Z,1020.29
2018-08-28T07:35:45.131Z,1024.55
2018-08-28T07:36:45.114Z,1024.63
2018-08-28T07:37:45.101Z,1024.76
2018-08-28T07:38:45.094Z,1025.33
2018-08-28T07:39:45.079Z,1025.91
2018-08-28T07:40:45.078Z,1025.68
2018-08-28T07:41:45.055Z,1025.32
2018-08-28T07:42:45.099Z,1025.15
2018-08-28T07:43:45.036Z,1025.70
2018-08-28T07:44:45.022Z,1026.42
2018-08-28T07:45:45.015Z,1026.32
2018-08-28T07:46:45.002Z,1026.44
2018-08-28T07:47:44.991Z,1026.80
2018-08-28T07:48:44.980Z,1027.24
2018-08-28T07:49:44.966Z,1027.28
2018-08-28T07:50:44.961Z,1027.22
2018-08-28T07:51:44.955Z,1027.23
2018-08-28T07:52:44.939Z,1027.43
2018-08-28T07:53:44.937Z,1028.10
2018-08-28T07:54:44.921Z,1025.66
2018-08-28T07:55:44.908Z,1028.43
2018-08-28T07:56:44.901Z,1021.88
2018-08-28T07:57:44.891Z,1027.52
2018-08-28T07:58:44.883Z,1027.64
2018-08-28T07:59:44.874Z,1016.82
2018-08-28T08:00:44.914Z,1022.85
2018-08-28T08:01:44.850Z,1024.84
2018-08-28T08:02:44.843Z,1024.59
2018-08-28T08:03:44.843Z,1019.16
2018-08-28T08:04:44.829Z,1016.61
2018-08-28T08:05:44.817Z,1024.96
2018-08-28T08:06:44.812Z,1025.07
2018-08-28T08:07:44.802Z,1021.79
2018-08-28T08:08:44.793Z,1024.55
2018-08-28T08:09:44.783Z,1024.02
2018-08-28T08:10:44.778Z,1023.67
2018-08-28T08:11:44.768Z,1024.03
2018-08-28T08:12:44.762Z,1024.26
2018-08-28T08:13:44.749Z,1024.30
2018-08-28T08:14:44.744Z,1023.83
2018-08-28T08:15:44.825Z,1023.47
2018-08-28T08:16:44.730Z,1022.18
2018-08-28T08:17:44.720Z,1024.54
2018-08-28T08:18:44.714Z,1025.28
2018-08-28T08:19:44.705Z,1024.08
2018-08-28T08:20:44.700Z,1023.75
2018-08-28T08:21:44.695Z,1017.51
2018-08-28T08:22:44.682Z,1023.49
2018-08-28T08:23:44.679Z,1022.97
2018-08-28T08:24:44.670Z,1023.44
2018-08-28T08:25:44.663Z,1023.82
2018-08-28T08:26:44.661Z,1023.81
2018-08-28T08:27:44.688Z,1022.75
2018-08-28T08:28:44.640Z,1021.38
2018-08-28T08:29:44.635Z,1021.13
2018-08-28T08:30:44.635Z,1021.28
2018-08-28T08:31:44.621Z,1020.92
2018-08-28T08:32:44.618Z,1020.42
2018-08-28T08:33:44.611Z,1020.08
2018-08-28T08:34:44.605Z,1020.00
2018-08-28T08:35:44.594Z,1020.27
2018-08-28T08:36:44.592Z,1020.77
2018-08-28T08:37:44.581Z,1021.32
2018-08-28T08:38:44.576Z,1019.35
2018-08-28T08:39:44.573Z,1016.47
2018-08-28T08:40:44.564Z,1016.12
2018-08-28T08:41:44.569Z,1019.49
2018-08-28T08:42:44.551Z,1017.64
2018-08-28T08:43:44.556Z,1016.48
2018-08-28T08:44:44.542Z,1016.50
2018-08-28T08:45:44.532Z,1016.39
2018-08-28T08:46:44.531Z,1016.54
2018-08-28T08:47:44.519Z,1016.51
2018-08-28T08:48:44.519Z,1016.47
2018-08-28T08:49:44.509Z,1016.47
2018-08-28T08:50:44.503Z,1016.47
2018-08-28T08:51:44.497Z,1016.49
2018-08-28T08:52:44.487Z,1016.47
2018-08-28T08:53:44.484Z,1016.52
2018-08-28T08:54:44.524Z,1016.52
2018-08-28T08:55:44.473Z,1016.49
2018-08-28T08:56:44.466Z,1016.48
2018-08-28T08:57:44.460Z,1016.64
2018-08-28T08:58:44.453Z,1016.58
2018-08-28T08:59:44.443Z,1016.57
2018-08-28T09:00:44.436Z,1016.51
2018-08-28T09:01:44.430Z,1016.54
2018-08-28T09:02:44.427Z,1016.48
2018-08-28T09:03:44.416Z,1016.51
2018-08-28T09:04:44.409Z,1016.49
2018-08-28T09:05:44.399Z,1016.43
2018-08-28T09:06:44.394Z,1016.43
2018-08-28T09:07:44.389Z,1016.46
2018-08-28T09:08:44.388Z,1016.48
2018-08-28T09:09:44.375Z,1016.48
2018-08-28T09:10:44.371Z,1016.45
2018-08-28T09:11:44.365Z,1016.50
2018-08-28T09:12:44.359Z,1016.51
2018-08-28T09:13:44.348Z,1016.52
2018-08-28T09:14:44.344Z,1016.50
2018-08-28T09:15:44.344Z,1016.57
2018-08-28T09:16:44.347Z,1016.55
2018-08-28T09:17:44.319Z,1016.59
2018-08-28T09:18:44.315Z,1016.60
2018-08-28T09:19:44.311Z,1016.65
2018-08-28T09:20:44.303Z,1016.73
2018-08-28T09:21:44.295Z,1016.79
2018-08-28T09:22:44.285Z,1016.87
2018-08-28T09:23:44.284Z,1016.95
2018-08-28T09:24:44.278Z,1016.91
2018-08-28T09:25:44.269Z,1016.98
2018-08-28T09:26:44.258Z,1016.95
2018-08-28T09:27:44.257Z,1016.91
2018-08-28T09:28:44.246Z,1016.94
2018-08-28T09:29:44.238Z,1016.95
2018-08-28T09:30:44.237Z,1016.77
2018-08-28T09:31:44.294Z,1016.96
2018-08-28T09:32:44.223Z,1016.98
2018-08-28T09:33:44.214Z,1016.92
2018-08-28T09:34:44.209Z,1016.22
2018-08-28T09:35:44.203Z,1016.30
2018-08-28T09:36:44.203Z,1016.09
2018-08-28T09:37:44.191Z,1016.64
2018-08-28T09:38:44.266Z,1016.61
2018-08-28T09:39:44.177Z,1016.07
2018-08-28T09:40:44.171Z,1016.10
2018-08-28T09:41:44.160Z,1016.50
2018-08-28T09:42:44.159Z,1016.54
2018-08-28T09:43:44.180Z,1016.56
2018-08-28T09:44:44.145Z,1016.46
2018-08-28T09:45:44.138Z,1016.34
2018-08-28T09:46:44.127Z,1016.30
2018-08-28T09:47:44.121Z,1016.31
2018-08-28T09:48:44.114Z,1016.35
2018-08-28T09:49:44.108Z,1016.34
2018-08-28T09:50:44.150Z,1016.35
2018-08-28T09:51:44.095Z,1016.40
2018-08-28T09:52:44.089Z,1016.73
2018-08-28T09:53:44.087Z,1016.91
2018-08-28T09:54:44.079Z,1017.02
2018-08-28T09:55:44.071Z,1017.03
2018-08-28T09:56:44.227Z,1017.00
2018-08-28T09:57:44.059Z,1017.03
2018-08-28T09:58:44.055Z,1017.12
2018-08-28T09:59:44.049Z,1017.18
2018-08-28T10:00:44.043Z,1017.13
2018-08-28T10:01:44.046Z,1017.17
2018-08-28T10:02:44.045Z,1016.51
2018-08-28T10:03:44.031Z,1016.33
2018-08-28T10:04:44.067Z,1017.23
2018-08-28T10:05:44.018Z,1017.35
2018-08-28T10:06:44.011Z,1017.18
2018-08-28T10:07:44.053Z,1017.26
2018-08-28T10:08:44.002Z,1016.41
2018-08-28T10:09:43.999Z,1017.03
2018-08-28T10:10:44.030Z,1017.28
2018-08-28T10:11:43.989Z,1017.33
2018-08-28T10:12:43.980Z,1017.36
2018-08-28T10:13:43.974Z,1017.39
2018-08-28T10:14:43.975Z,1017.37
2018-08-28T10:15:43.966Z,1017.29
2018-08-28T10:16:43.968Z,1017.29
2018-08-28T10:17:43.958Z,1017.26
2018-08-28T10:18:43.952Z,1017.19
2018-08-28T10:19:43.951Z,1017.22
2018-08-28T10:20:43.946Z,1017.26
2018-08-28T10:21:43.943Z,1017.17
2018-08-28T10:22:43.962Z,1017.53
2018-08-28T10:23:43.935Z,1017.35
2018-08-28T10:24:43.928Z,1017.54
2018-08-28T10:25:43.921Z,1017.58
2018-08-28T10:26:43.918Z,1016.34
2018-08-28T10:27:43.920Z,1016.25
2018-08-28T10:28:43.917Z,1016.26
2018-08-28T10:29:43.954Z,1016.23
2018-08-28T10:30:43.908Z,1016.24
2018-08-28T10:31:43.904Z,1017.56
2018-08-28T10:32:43.899Z,1017.58
2018-08-28T10:33:43.895Z,1017.68
2018-08-28T10:34:43.893Z,1016.84
2018-08-28T10:35:43.887Z,1016.33
2018-08-28T10:36:43.884Z,1016.21
2018-08-28T10:37:43.877Z,1016.28
2018-08-28T10:38:43.874Z,1016.21
2018-08-28T10:39:43.878Z,1016.22
2018-08-28T10:40:43.865Z,1016.22
2018-08-28T10:41:43.870Z,1016.76
2018-08-28T10:42:43.856Z,1016.13
2018-08-28T10:43:43.850Z,1016.12
2018-08-28T10:44:43.848Z,1016.18
2018-08-28T10:45:43.848Z,1016.17
2018-08-28T10:46:43.977Z,1016.13
2018-08-28T10:47:43.838Z,1016.19
2018-08-28T10:48:43.834Z,1017.33
2018-08-28T10:49:43.826Z,1016.31
2018-08-28T10:50:43.822Z,1017.49
2018-08-28T10:51:43.815Z,1017.43
2018-08-28T10:52:43.830Z,1017.46
2018-08-28T10:53:43.805Z,1017.36
2018-08-28T10:54:43.803Z,1016.74
2018-08-28T10:55:43.803Z,1017.34
2018-08-28T10:56:43.848Z,1017.34
2018-08-28T10:57:43.790Z,1017.33
2018-08-28T10:58:43.904Z,1017.30
2018-08-28T10:59:43.782Z,1016.46
2018-08-28T11:00:43.776Z,1017.37
2018-08-28T11:01:43.775Z,1017.37
2018-08-28T11:02:43.768Z,1017.43
2018-08-28T11:03:43.779Z,1016.83
2018-08-28T11:04:43.778Z,1016.42
2018-08-28T11:05:43.760Z,1016.45
2018-08-28T11:06:43.751Z,1016.43
2018-08-28T11:07:43.753Z,1016.42
2018-08-28T11:08:43.783Z,1017.20
2018-08-28T11:09:43.743Z,1016.42
2018-08-28T11:10:43.748Z,1016.39
2018-08-28T11:11:43.743Z,1016.38
2018-08-28T11:12:43.734Z,1016.41
2018-08-28T11:13:43.729Z,1017.30
2018-08-28T11:14:43.727Z,1016.42
2018-08-28T11:15:43.719Z,1016.39
2018-08-28T11:16:43.717Z,1016.36
2018-08-28T11:17:43.716Z,1016.32
2018-08-28T11:18:43.708Z,1016.36
2018-08-28T11:19:43.702Z,1016.33
2018-08-28T11:20:43.696Z,1016.32
2018-08-28T11:21:43.695Z,1016.31
2018-08-28T11:22:43.699Z,1016.35
2018-08-28T11:23:43.687Z,1016.47
2018-08-28T11:24:43.684Z,1016.36
2018-08-28T11:25:43.678Z,1016.35
2018-08-28T11:26:43.671Z,1016.32
2018-08-28T11:27:43.667Z,1016.94
2018-08-28T11:28:43.661Z,1017.00
2018-08-28T11:29:43.669Z,1016.53
2018-08-28T11:30:43.651Z,1016.37
2018-08-28T11:31:43.648Z,1016.37
2018-08-28T11:32:43.648Z,1016.63
2018-08-28T11:33:43.635Z,1016.71
2018-08-28T11:34:43.631Z,1016.32
2018-08-28T11:35:43.686Z,1016.43
2018-08-28T11:36:43.619Z,1016.56
2018-08-28T11:37:43.619Z,1016.56
2018-08-28T11:38:43.613Z,1016.56
2018-08-28T11:39:43.608Z,1016.48
2018-08-28T11:40:43.604Z,1016.51
2018-08-28T11:41:43.592Z,1016.76
2018-08-28T11:42:43.592Z,1016.96
2018-08-28T11:43:43.587Z,1016.94
2018-08-28T11:44:43.580Z,1016.93
2018-08-28T11:45:43.579Z,1016.97
2018-08-28T11:46:43.570Z,1016.58
2018-08-28T11:47:43.567Z,1016.79
2018-08-28T11:48:43.566Z,1016.40
2018-08-28T11:49:43.557Z,1016.48
2018-08-28T11:50:43.553Z,1016.40
2018-08-28T11:51:43.553Z,1016.44
2018-08-28T11:52:43.655Z,1016.43
2018-08-28T11:53:43.539Z,1016.41
2018-08-28T11:54:43.539Z,1016.43
2018-08-28T11:55:43.535Z,1016.84
2018-08-28T11:56:43.526Z,1016.82
2018-08-28T11:57:43.523Z,1016.67
2018-08-28T11:58:43.518Z,1016.86
2018-08-28T11:59:43.517Z,1016.86
2018-08-28T12:00:43.510Z,1016.84
2018-08-28T12:01:43.504Z,1016.87
2018-08-28T12:02:43.500Z,1016.87
2018-08-28T12:03:43.495Z,1016.84
2018-08-28T12:04:43.502Z,1016.86
2018-08-28T12:05:43.492Z,1016.85